createdAt,value
2018-03-29T00:00:22.518Z,8.60
2018-03-29T00:02:50.706Z,8.50
2018-03-29T00:05:18.305Z,8.50
2018-03-29T00:07:45.789Z,8.50
2018-03-29T00:10:13.229Z,8.50
2018-03-29T00:12:41.633Z,8.50
2018-03-29T00:15:09.060Z,8.40
2018-03-29T00:17:36.555Z,8.30
2018-03-29T00:20:04.012Z,8.20
2018-03-29T00:22:32.217Z,8.20
2018-03-29T00:24:59.906Z,8.20
2018-03-29T00:27:27.357Z,8.00
2018-03-29T00:29:55.417Z,7.80
2018-03-29T00:32:22.854Z,7.70
2018-03-29T00:34:50.333Z,7.60
2018-03-29T00:37:17.777Z,7.50
2018-03-29T00:39:45.237Z,7.40
2018-03-29T00:42:12.724Z,7.30
2018-03-29T00:44:40.210Z,7.40
2018-03-29T00:47:07.653Z,7.40
2018-03-29T00:49:35.105Z,7.30
2018-03-29T00:52:03.325Z,7.30
2018-03-29T00:54:31.703Z,7.10
2018-03-29T00:56:59.161Z,7.00
2018-03-29T00:59:26.601Z,6.90
2018-03-29T01:01:58.634Z,6.80
2018-03-29T01:04:26.032Z,6.70
2018-03-29T01:06:53.673Z,6.60
2018-03-29T01:09:21.116Z,6.50
2018-03-29T01:11:48.557Z,6.50
2018-03-29T01:14:16.009Z,6.50
2018-03-29T01:16:46.675Z,6.40
2018-03-29T01:19:14.110Z,6.40
2018-03-29T01:21:42.506Z,6.40
2018-03-29T01:24:09.986Z,6.40
2018-03-29T01:26:37.421Z,6.40
2018-03-29T01:29:04.869Z,6.40
2018-03-29T01:31:32.516Z,6.50
2018-03-29T01:33:59.971Z,6.40
2018-03-29T01:36:27.524Z,6.40
2018-03-29T01:38:55.112Z,6.40
2018-03-29T01:41:22.581Z,6.30
2018-03-29T01:43:50.047Z,6.30
2018-03-29T01:46:17.485Z,6.30
2018-03-29T01:48:48.394Z,6.20
2018-03-29T01:51:15.836Z,6.20
2018-03-29T01:53:43.450Z,6.30
2018-03-29T01:56:10.886Z,6.20
2018-03-29T01:58:38.329Z,6.20
2018-03-29T02:01:05.853Z,6.20
2018-03-29T02:03:36.373Z,6.30
2018-03-29T02:06:04.114Z,6.30
2018-03-29T02:08:31.556Z,6.30
2018-03-29T02:11:00.228Z,6.30
2018-03-29T02:13:27.676Z,6.30
2018-03-29T02:15:55.145Z,6.30
2018-03-29T02:18:26.065Z,6.20
2018-03-29T02:20:53.669Z,6.20
2018-03-29T02:23:21.141Z,6.10
2018-03-29T02:25:49.895Z,5.90
2018-03-29T02:28:17.344Z,5.90
2018-03-29T02:30:44.818Z,5.80
2018-03-29T02:33:12.455Z,5.70
2018-03-29T02:35:39.942Z,5.70
2018-03-29T02:38:08.246Z,5.70
2018-03-29T02:40:36.468Z,5.70
2018-03-29T02:43:03.932Z,5.70
2018-03-29T02:45:31.375Z,5.70
2018-03-29T02:47:58.828Z,5.70
2018-03-29T02:50:26.288Z,5.80
2018-03-29T02:52:53.751Z,5.80
2018-03-29T02:55:22.749Z,5.80
2018-03-29T02:57:50.198Z,5.80
2018-03-29T03:00:17.684Z,5.80
2018-03-29T03:02:45.120Z,5.70
2018-03-29T03:05:12.591Z,5.70
2018-03-29T03:07:40.985Z,5.60
2018-03-29T03:10:08.413Z,5.50
2018-03-29T03:12:35.869Z,5.40
2018-03-29T03:15:03.361Z,5.40
2018-03-29T03:17:30.821Z,5.40
2018-03-29T03:19:58.253Z,5.40
2018-03-29T03:22:25.709Z,5.30
2018-03-29T03:24:53.355Z,5.30
2018-03-29T03:27:20.938Z,5.20
2018-03-29T03:29:48.382Z,5.10
2018-03-29T03:32:15.822Z,5.10
2018-03-29T03:34:44.841Z,5.00
2018-03-29T03:37:12.309Z,5.00
2018-03-29T03:39:39.899Z,4.90
2018-03-29T03:42:09.091Z,4.80
2018-03-29T03:44:36.557Z,4.70
2018-03-29T03:47:04.049Z,4.70
2018-03-29T03:49:35.737Z,4.60
2018-03-29T03:52:03.644Z,4.60
2018-03-29T03:54:31.106Z,4.60
2018-03-29T03:56:58.549Z,4.60
2018-03-29T03:59:26.777Z,4.60
2018-03-29T04:01:54.297Z,4.60
2018-03-29T04:04:21.933Z,4.50
2018-03-29T04:06:53.161Z,4.50
2018-03-29T04:09:20.913Z,4.60
2018-03-29T04:11:48.547Z,4.50
2018-03-29T04:14:16.149Z,4.60
2018-03-29T04:16:43.601Z,4.60
2018-03-29T04:19:11.070Z,4.60
2018-03-29T04:21:42.350Z,4.70
2018-03-29T04:24:09.855Z,4.60
2018-03-29T04:26:38.088Z,4.60
2018-03-29T04:29:05.573Z,4.60
2018-03-29T04:31:33.041Z,4.60
2018-03-29T04:34:00.489Z,4.70
2018-03-29T04:36:30.974Z,4.70
2018-03-29T04:38:58.434Z,4.60
2018-03-29T04:41:27.356Z,4.60
2018-03-29T04:43:54.831Z,4.60
2018-03-29T04:46:22.283Z,4.70
2018-03-29T04:48:49.740Z,4.70
2018-03-29T04:51:17.200Z,4.80
2018-03-29T04:53:45.562Z,4.70
2018-03-29T04:56:13.308Z,4.70
2018-03-29T04:58:40.741Z,4.80
2018-03-29T05:01:08.179Z,4.90
2018-03-29T05:03:35.677Z,4.90
2018-03-29T05:06:06.873Z,5.00
2018-03-29T05:08:35.368Z,5.00
2018-03-29T05:11:02.881Z,5.00
2018-03-29T05:13:30.325Z,5.00
2018-03-29T05:15:57.928Z,5.10
2018-03-29T05:18:25.360Z,5.10
2018-03-29T05:20:57.447Z,5.00
2018-03-29T05:23:24.896Z,5.00
2018-03-29T05:25:52.370Z,5.00
2018-03-29T05:28:19.814Z,5.00
2018-03-29T05:30:47.283Z,5.00
2018-03-29T05:33:16.245Z,5.00
2018-03-29T05:35:44.061Z,5.00
2018-03-29T05:38:11.517Z,5.10
2018-03-29T05:40:39.255Z,5.10
2018-03-29T05:43:06.713Z,5.10
2018-03-29T05:45:34.173Z,5.20
2018-03-29T05:48:01.647Z,5.30
2018-03-29T05:50:29.087Z,5.20
2018-03-29T05:52:57.455Z,5.20
2018-03-29T05:55:24.922Z,5.20
2018-03-29T05:57:52.369Z,5.20
2018-03-29T06:00:19.829Z,5.30
2018-03-29T06:02:47.277Z,5.40
2018-03-29T06:05:14.749Z,5.30
2018-03-29T06:07:42.189Z,5.40
2018-03-29T06:10:09.665Z,5.50
2018-03-29T06:12:37.285Z,5.60
2018-03-29T06:15:10.272Z,5.70
2018-03-29T06:17:37.733Z,5.70
2018-03-29T06:20:05.172Z,5.80
2018-03-29T06:22:32.645Z,5.90
2018-03-29T06:25:01.765Z,5.80
2018-03-29T06:27:29.213Z,5.80
2018-03-29T06:29:56.682Z,5.80
2018-03-29T06:32:24.316Z,5.70
2018-03-29T06:34:51.760Z,5.80
2018-03-29T06:37:24.285Z,5.80
2018-03-29T06:39:51.774Z,5.80
2018-03-29T06:42:19.345Z,5.80
2018-03-29T06:44:47.570Z,5.80
2018-03-29T06:47:15.036Z,5.80
2018-03-29T06:49:42.497Z,5.70
2018-03-29T06:52:09.957Z,5.70
2018-03-29T06:54:37.421Z,5.80
2018-03-29T06:57:05.183Z,5.80
2018-03-29T06:59:32.645Z,5.80
2018-03-29T07:02:00.084Z,5.80
2018-03-29T07:04:27.840Z,5.90
2018-03-29T07:06:55.477Z,5.90
2018-03-29T07:09:23.399Z,5.90
2018-03-29T07:11:50.877Z,5.90
2018-03-29T07:14:18.352Z,6.00
2018-03-29T07:16:45.914Z,6.10
2018-03-29T07:19:13.376Z,6.20
2018-03-29T07:21:41.044Z,6.30
2018-03-29T07:24:12.656Z,6.50
2018-03-29T07:26:40.113Z,6.70
2018-03-29T07:29:07.571Z,7.00
2018-03-29T07:31:35.097Z,7.20
2018-03-29T07:34:02.538Z,7.40
2018-03-29T07:36:30.042Z,7.50
2018-03-29T07:39:00.576Z,7.50
2018-03-29T07:41:28.018Z,7.30
2018-03-29T07:43:56.152Z,7.10
2018-03-29T07:46:23.622Z,7.00
2018-03-29T07:48:51.082Z,6.80
2018-03-29T07:51:18.517Z,6.60
2018-03-29T07:53:50.194Z,6.60
2018-03-29T07:56:17.629Z,6.90
2018-03-29T07:58:45.761Z,7.20
2018-03-29T08:01:13.228Z,7.40
2018-03-29T08:03:40.703Z,7.20
2018-03-29T08:06:08.191Z,7.40
2018-03-29T08:08:35.619Z,7.40
2018-03-29T08:11:03.264Z,7.30
2018-03-29T08:13:30.705Z,7.50
2018-03-29T08:15:58.226Z,7.60
2018-03-29T08:18:25.665Z,7.70
2018-03-29T08:20:53.121Z,7.90
2018-03-29T08:23:20.690Z,7.60
2018-03-29T08:25:48.684Z,7.60
2018-03-29T08:28:16.150Z,7.90
2018-03-29T08:30:43.593Z,7.80
2018-03-29T08:33:11.062Z,7.50
2018-03-29T08:35:38.667Z,7.10
2018-03-29T08:38:06.124Z,7.20
2018-03-29T08:40:33.569Z,7.10
2018-03-29T08:43:01.041Z,7.20
2018-03-29T08:45:28.500Z,7.20
2018-03-29T08:47:56.745Z,7.20
2018-03-29T08:50:24.969Z,7.20
2018-03-29T08:52:52.434Z,7.20
2018-03-29T08:55:19.896Z,7.40
2018-03-29T08:57:47.361Z,7.70
2018-03-29T09:00:15.522Z,7.70
2018-03-29T09:02:42.972Z,7.60
2018-03-29T09:05:10.981Z,7.80
2018-03-29T09:07:38.437Z,7.90
2018-03-29T09:10:09.614Z,7.90
2018-03-29T09:12:37.063Z,8.40
2018-03-29T09:15:04.584Z,8.90
2018-03-29T09:17:32.054Z,9.10
2018-03-29T09:20:00.337Z,9.30
2018-03-29T09:22:27.808Z,9.60
2018-03-29T09:25:07.317Z,9.80
2018-03-29T09:27:34.753Z,9.60
2018-03-29T09:30:02.440Z,9.30
2018-03-29T09:32:31.669Z,8.70
2018-03-29T09:34:59.113Z,8.70
2018-03-29T09:37:27.349Z,8.50
2018-03-29T09:39:54.812Z,8.50
2018-03-29T09:42:22.257Z,8.90
2018-03-29T09:44:49.717Z,9.10
2018-03-29T09:47:17.176Z,9.00
2018-03-29T09:49:46.440Z,8.80
2018-03-29T09:52:13.913Z,8.70
2018-03-29T09:54:41.383Z,8.80
2018-03-29T09:57:08.832Z,8.70
2018-03-29T09:59:36.269Z,8.80
2018-03-29T10:02:10.179Z,8.60
2018-03-29T10:04:37.609Z,8.70
2018-03-29T10:07:10.661Z,9.20
2018-03-29T10:09:38.097Z,9.70
2018-03-29T10:12:05.559Z,10.30
2018-03-29T10:14:33.021Z,10.50
2018-03-29T10:17:00.469Z,10.60
2018-03-29T10:19:27.936Z,10.50
2018-03-29T10:21:55.989Z,10.20
2018-03-29T10:24:25.141Z,10.10
2018-03-29T10:26:53.353Z,10.10
2018-03-29T10:29:20.832Z,10.00
2018-03-29T10:31:48.289Z,10.10
2018-03-29T10:34:15.756Z,10.20
2018-03-29T10:36:44.141Z,10.10
2018-03-29T10:39:11.586Z,9.70
2018-03-29T10:41:43.359Z,9.60
2018-03-29T10:44:10.978Z,9.70
2018-03-29T10:46:38.868Z,9.40
2018-03-29T10:49:06.279Z,9.30
2018-03-29T10:51:33.753Z,9.30
2018-03-29T10:54:01.253Z,9.20
2018-03-29T10:56:33.013Z,9.30
2018-03-29T10:59:00.468Z,9.30
2018-03-29T11:01:29.036Z,8.80
2018-03-29T11:03:56.559Z,8.80
2018-03-29T11:06:23.998Z,9.00
2018-03-29T11:08:51.467Z,8.80
2018-03-29T11:11:18.997Z,8.70
2018-03-29T11:13:47.349Z,8.60
2018-03-29T11:16:14.824Z,8.80
2018-03-29T11:18:42.274Z,9.00
2018-03-29T11:21:09.898Z,9.00
2018-03-29T11:23:37.364Z,9.10
2018-03-29T11:26:04.880Z,9.10
2018-03-29T11:28:32.344Z,9.10
2018-03-29T11:30:59.813Z,9.20
2018-03-29T11:33:27.333Z,9.30
2018-03-29T11:35:56.209Z,9.80
2018-03-29T11:38:23.665Z,10.00
2018-03-29T11:40:51.145Z,9.90
2018-03-29T11:43:18.597Z,9.80
2018-03-29T11:45:46.061Z,9.80
2018-03-29T11:48:13.524Z,10.00
2018-03-29T11:50:41.841Z,10.30
2018-03-29T11:53:09.351Z,10.30
2018-03-29T11:55:36.819Z,10.20
2018-03-29T11:58:04.291Z,10.00
2018-03-29T12:00:31.741Z,9.80
2018-03-29T12:02:59.201Z,9.70
2018-03-29T12:05:26.638Z,9.40
2018-03-29T12:07:54.152Z,9.30
2018-03-29T12:10:21.601Z,9.10
2018-03-29T12:12:52.473Z,9.10
2018-03-29T12:15:19.939Z,9.20
2018-03-29T12:17:47.598Z,9.30
2018-03-29T12:20:15.067Z,9.00
2018-03-29T12:22:42.504Z,8.90
2018-03-29T12:25:09.975Z,8.80
2018-03-29T12:27:37.636Z,9.00
2018-03-29T12:30:05.097Z,9.10
2018-03-29T12:32:33.379Z,9.40
2018-03-29T12:35:01.516Z,9.40
2018-03-29T12:37:28.954Z,9.60
2018-03-29T12:39:56.436Z,9.60
2018-03-29T12:42:23.897Z,9.30
2018-03-29T12:44:51.345Z,9.60
2018-03-29T12:47:18.836Z,9.90
2018-03-29T12:49:47.057Z,10.30
2018-03-29T12:52:15.737Z,10.50
2018-03-29T12:54:55.023Z,10.50
2018-03-29T12:57:34.345Z,10.90
2018-03-29T13:00:01.829Z,11.10
2018-03-29T13:02:29.308Z,11.00
2018-03-29T13:04:56.765Z,11.00
2018-03-29T13:07:24.237Z,11.40
2018-03-29T13:09:52.467Z,11.50
2018-03-29T13:12:19.908Z,11.30
2018-03-29T13:14:47.629Z,11.50
2018-03-29T13:17:15.217Z,11.40
2018-03-29T13:19:42.676Z,11.30
2018-03-29T13:22:10.134Z,11.30
2018-03-29T13:24:37.577Z,11.40
2018-03-29T13:27:05.038Z,11.30
2018-03-29T13:29:39.892Z,11.40
2018-03-29T13:32:07.565Z,11.40
2018-03-29T13:34:35.008Z,10.80
2018-03-29T13:37:02.472Z,10.30
2018-03-29T13:39:29.977Z,10.20
2018-03-29T13:41:57.477Z,10.10
2018-03-29T13:44:25.854Z,10.10
2018-03-29T13:46:53.329Z,10.00
2018-03-29T13:49:20.812Z,10.30
2018-03-29T13:51:48.252Z,10.70
2018-03-29T13:54:16.494Z,11.10
2018-03-29T13:56:43.961Z,11.10
2018-03-29T13:59:11.432Z,11.30
2018-03-29T14:01:38.880Z,11.00
2018-03-29T14:04:06.512Z,10.90
2018-03-29T14:06:35.425Z,11.10
2018-03-29T14:09:02.898Z,11.10
2018-03-29T14:11:30.332Z,11.30
2018-03-29T14:13:58.929Z,11.10
2018-03-29T14:16:26.497Z,11.10
2018-03-29T14:18:53.968Z,11.20
2018-03-29T14:21:21.432Z,11.10
2018-03-29T14:23:48.990Z,11.00
2018-03-29T14:26:17.239Z,11.20
2018-03-29T14:28:44.698Z,11.20
2018-03-29T14:31:13.660Z,10.50
2018-03-29T14:33:41.178Z,10.40
2018-03-29T14:36:09.376Z,10.00
2018-03-29T14:38:37.314Z,9.90
2018-03-29T14:41:05.969Z,10.10
2018-03-29T14:43:33.720Z,10.10
2018-03-29T14:46:04.612Z,10.30
2018-03-29T14:48:32.645Z,10.50
2018-03-29T14:51:00.134Z,10.80
2018-03-29T14:53:27.589Z,11.10
2018-03-29T14:55:55.313Z,11.40
2018-03-29T14:58:22.752Z,11.70
2018-03-29T15:00:50.212Z,11.60
2018-03-29T15:03:17.747Z,11.70
2018-03-29T15:05:45.205Z,12.00
2018-03-29T15:08:12.808Z,12.40
2018-03-29T15:10:40.913Z,12.50
2018-03-29T15:13:08.373Z,12.50
2018-03-29T15:15:47.736Z,12.40
2018-03-29T15:18:15.169Z,12.00
2018-03-29T15:20:42.657Z,11.90
2018-03-29T15:23:10.109Z,11.80
2018-03-29T15:25:37.705Z,11.30
2018-03-29T15:28:05.140Z,11.10
2018-03-29T15:30:32.609Z,10.90
2018-03-29T15:33:00.980Z,10.80
2018-03-29T15:35:28.492Z,10.70
2018-03-29T15:37:55.942Z,10.70
2018-03-29T15:40:23.405Z,10.60
2018-03-29T15:42:50.856Z,10.50
2018-03-29T15:45:18.347Z,10.40
2018-03-29T15:47:49.115Z,10.30
2018-03-29T15:50:16.592Z,10.20
2018-03-29T15:52:45.569Z,10.00
2018-03-29T15:55:13.817Z,10.00
2018-03-29T15:57:41.285Z,9.90
2018-03-29T16:00:09.669Z,10.00
2018-03-29T16:02:41.840Z,10.10
2018-03-29T16:05:11.426Z,10.10
2018-03-29T16:07:38.900Z,10.10
2018-03-29T16:10:06.369Z,10.00
2018-03-29T16:12:34.806Z,10.00
2018-03-29T16:15:02.409Z,9.60
2018-03-29T16:17:33.344Z,9.50
2018-03-29T16:20:00.863Z,9.60
2018-03-29T16:22:28.314Z,9.60
2018-03-29T16:24:55.781Z,9.60
2018-03-29T16:27:23.254Z,9.60
2018-03-29T16:29:50.698Z,9.50
2018-03-29T16:32:26.575Z,9.40
2018-03-29T16:34:54.665Z,9.30
2018-03-29T16:37:22.152Z,9.30
2018-03-29T16:39:49.608Z,9.20
2018-03-29T16:42:17.052Z,9.10
2018-03-29T16:44:44.544Z,9.10
2018-03-29T16:47:19.329Z,9.10
2018-03-29T16:49:46.814Z,8.90
2018-03-29T16:52:15.224Z,8.90
2018-03-29T16:54:42.666Z,8.80
2018-03-29T16:57:10.134Z,8.80
2018-03-29T16:59:37.625Z,8.80
2018-03-29T17:02:05.089Z,8.80
2018-03-29T17:04:33.511Z,8.60
2018-03-29T17:07:00.981Z,8.50
2018-03-29T17:09:28.645Z,8.50
2018-03-29T17:11:56.144Z,8.40
2018-03-29T17:14:24.031Z,8.30
2018-03-29T17:16:53.171Z,8.20
2018-03-29T17:19:20.671Z,8.20
2018-03-29T17:21:48.695Z,8.20
2018-03-29T17:24:17.409Z,8.10
2018-03-29T17:26:44.863Z,8.10
2018-03-29T17:29:12.548Z,8.00
2018-03-29T17:31:39.981Z,7.90
2018-03-29T17:34:07.439Z,7.90
2018-03-29T17:36:34.947Z,7.80
2018-03-29T17:39:02.390Z,7.90
2018-03-29T17:41:31.541Z,7.80
2018-03-29T17:43:59.109Z,7.80
2018-03-29T17:46:26.574Z,7.70
2018-03-29T17:48:54.036Z,7.70
2018-03-29T17:51:21.622Z,7.60
2018-03-29T17:53:50.899Z,7.50
2018-03-29T17:56:18.337Z,7.40
2018-03-29T17:58:46.123Z,7.40
2018-03-29T18:01:13.558Z,7.50
2018-03-29T18:03:51.469Z,7.40
2018-03-29T18:06:18.936Z,7.30
2018-03-29T18:08:46.376Z,7.10
2018-03-29T18:11:13.857Z,7.10
2018-03-29T18:13:41.492Z,7.00
2018-03-29T18:16:08.984Z,7.00
2018-03-29T18:18:40.569Z,6.90
2018-03-29T18:21:08.041Z,6.90
2018-03-29T18:23:35.521Z,6.80
2018-03-29T18:26:02.957Z,6.60
2018-03-29T18:28:30.410Z,6.50
2018-03-29T18:30:57.906Z,6.50
2018-03-29T18:33:25.363Z,6.40
2018-03-29T18:35:53.021Z,6.40
2018-03-29T18:38:20.474Z,6.30
2018-03-29T18:40:47.941Z,6.30
2018-03-29T18:43:15.389Z,6.10
2018-03-29T18:45:43.741Z,6.00
2018-03-29T18:48:12.410Z,5.90
2018-03-29T18:50:39.898Z,5.80
2018-03-29T18:53:08.471Z,5.80
2018-03-29T18:55:35.949Z,5.80
2018-03-29T18:58:03.521Z,5.90
2018-03-29T19:00:30.958Z,5.90
2018-03-29T19:02:58.729Z,5.90
2018-03-29T19:05:27.198Z,5.90
2018-03-29T19:07:54.637Z,5.70
2018-03-29T19:10:22.133Z,5.60
2018-03-29T19:12:49.609Z,5.50
2018-03-29T19:15:17.065Z,5.50
2018-03-29T19:17:44.511Z,5.50
2018-03-29T19:20:16.470Z,5.40
2018-03-29T19:22:43.925Z,5.30
2018-03-29T19:25:11.377Z,5.30
2018-03-29T19:27:39.147Z,5.30
2018-03-29T19:30:06.627Z,5.30
2018-03-29T19:32:34.062Z,5.20
2018-03-29T19:35:05.534Z,5.10
2018-03-29T19:37:32.982Z,5.00
2018-03-29T19:40:01.640Z,4.90
2018-03-29T19:42:29.084Z,4.90
2018-03-29T19:44:56.552Z,4.80
2018-03-29T19:47:24.011Z,4.80
2018-03-29T19:49:51.484Z,4.80
2018-03-29T19:52:19.545Z,4.80
2018-03-29T19:54:46.997Z,4.70
2018-03-29T19:57:14.712Z,4.70
2018-03-29T19:59:42.149Z,4.60
2018-03-29T20:02:09.684Z,4.50
2018-03-29T20:04:37.157Z,4.40
2018-03-29T20:07:04.605Z,4.30
2018-03-29T20:09:32.384Z,4.30
2018-03-29T20:12:00.041Z,4.20
2018-03-29T20:14:28.113Z,4.20
2018-03-29T20:16:56.399Z,4.10
2018-03-29T20:19:23.836Z,4.10
2018-03-29T20:21:51.302Z,4.10
2018-03-29T20:24:18.768Z,4.10
2018-03-29T20:26:46.212Z,4.00
2018-03-29T20:29:13.662Z,3.80
2018-03-29T20:31:41.270Z,3.80
2018-03-29T20:34:08.786Z,3.80
2018-03-29T20:36:41.372Z,3.60
2018-03-29T20:39:08.848Z,3.60
2018-03-29T20:41:38.042Z,3.60
2018-03-29T20:44:07.225Z,3.40
2018-03-29T20:46:34.698Z,3.40
2018-03-29T20:49:02.158Z,3.40
2018-03-29T20:51:33.273Z,3.30
2018-03-29T20:54:00.716Z,3.20
2018-03-29T20:56:28.177Z,3.20
2018-03-29T20:58:56.569Z,3.30
2018-03-29T21:01:24.046Z,3.30
2018-03-29T21:03:51.498Z,3.40
2018-03-29T21:06:18.994Z,3.70
2018-03-29T21:08:46.465Z,3.60
2018-03-29T21:11:13.954Z,3.40
2018-03-29T21:13:41.621Z,3.30
2018-03-29T21:16:09.101Z,3.20
2018-03-29T21:18:37.334Z,3.00
2018-03-29T21:21:05.125Z,3.10
2018-03-29T21:23:32.568Z,3.00
2018-03-29T21:26:00.824Z,2.90
2018-03-29T21:28:28.261Z,2.90
2018-03-29T21:30:55.848Z,2.90
2018-03-29T21:33:25.305Z,2.80
2018-03-29T21:35:53.040Z,2.80
2018-03-29T21:38:20.465Z,2.70
2018-03-29T21:40:47.937Z,2.70
2018-03-29T21:43:15.387Z,2.70
2018-03-29T21:45:43.088Z,2.60
2018-03-29T21:48:11.325Z,2.50
2018-03-29T21:50:38.806Z,2.50
2018-03-29T21:53:10.124Z,2.50
2018-03-29T21:55:38.196Z,2.50
2018-03-29T21:58:05.702Z,2.50
2018-03-29T22:00:33.425Z,2.70
2018-03-29T22:03:00.897Z,2.70
2018-03-29T22:05:28.525Z,2.70
2018-03-29T22:07:55.964Z,2.80
2018-03-29T22:10:23.502Z,2.80
2018-03-29T22:12:50.937Z,2.80
2018-03-29T22:15:19.176Z,2.70
2018-03-29T22:17:47.433Z,2.60
2018-03-29T22:20:14.930Z,2.60
2018-03-29T22:22:45.774Z,2.60
2018-03-29T22:25:13.386Z,2.60
2018-03-29T22:27:41.629Z,2.70
2018-03-29T22:30:09.113Z,2.70
2018-03-29T22:32:36.553Z,2.70
2018-03-29T22:35:04.001Z,2.60
2018-03-29T22:37:31.629Z,2.60
2018-03-29T22:39:59.084Z,2.40
2018-03-29T22:42:26.569Z,2.30
2018-03-29T22:44:55.709Z,2.20
2018-03-29T22:47:23.177Z,2.20
2018-03-29T22:49:50.626Z,2.20
2018-03-29T22:52:18.323Z,2.20
2018-03-29T22:54:45.957Z,2.10
2018-03-29T22:57:13.415Z,2.00
2018-03-29T22:59:41.176Z,2.00
2018-03-29T23:02:10.228Z,2.00
2018-03-29T23:04:37.697Z,1.90
2018-03-29T23:07:05.146Z,1.90
2018-03-29T23:09:37.897Z,1.80
2018-03-29T23:12:05.361Z,1.80
2018-03-29T23:14:32.868Z,1.80
2018-03-29T23:17:00.568Z,1.80
2018-03-29T23:19:28.502Z,1.70
2018-03-29T23:21:55.952Z,1.60
2018-03-29T23:24:26.938Z,1.60
2018-03-29T23:26:54.389Z,1.60
2018-03-29T23:29:21.853Z,1.50
2018-03-29T23:31:49.325Z,1.40
2018-03-29T23:34:18.468Z,1.40
2018-03-29T23:36:45.953Z,1.40
2018-03-29T23:39:17.082Z,1.40
2018-03-29T23:41:44.525Z,1.30
2018-03-29T23:44:12.925Z,1.30
2018-03-29T23:46:40.382Z,1.20
2018-03-29T23:49:07.957Z,1.20
2018-03-29T23:51:35.408Z,1.20
2018-03-29T23:54:07.162Z,1.20
2018-03-29T23:56:34.605Z,1.10
2018-03-29T23:59:02.220Z,1.10
